AFR722 FCBB-LFPG
Flight info
| Callsign | AFR722 |
|---|---|
| Flight time | N/A |
| Altitude | 38000 |
| Route | BZ UG856 LV UB600 EBULI DCT 03N005E DCT TAMOK DCT MONOS DCT PAMPA/N0485F400 UR983 OG UR866 BULIS DCT MABAP UR722 SAK UG5 KORIS L27 MAR DCT ALCOL DCT LOGRO DCT ETANA DCT VTB DCT RBO N867 DGO DCT ABRIX DCT CNA DCT POI DCT PEPAX UT182 KEPER |
| Aircraft | A359/H-SDE2E3GHIJ3J4J5LM1ORWXY/LB1D1 |
Departure
| Time | 2026-04-28 13:17 |
|---|---|
| Airport | Maya-Maya International Airport (FCBB) |
Arrival
| Time | N/A |
|---|---|
| Airport | Charles de Gaulle International Airport (LFPG) |
| Time | Latitude | Longitude | Altitude | Speed | Heading |
|---|---|---|---|---|---|
| 2026-04-28 12:51 | -4.25683 | 15.25166 | 1045 ft | 0 kts | 140° |
| 2026-04-28 13:06 | -4.25672 | 15.25158 | 1045 ft | 4 kts | 147° |
| 2026-04-28 13:06 | -4.25648 | 15.25146 | 1047 ft | 4 kts | 165° |
| 2026-04-28 13:06 | -4.25622 | 15.25142 | 1047 ft | 4 kts | 180° |
| 2026-04-28 13:07 | -4.25595 | 15.25144 | 1047 ft | 4 kts | 193° |
| 2026-04-28 13:07 | -4.25569 | 15.25152 | 1046 ft | 4 kts | 206° |
| 2026-04-28 13:07 | -4.25547 | 15.25166 | 1046 ft | 4 kts | 225° |
| 2026-04-28 13:07 | -4.25543 | 15.25170 | 1047 ft | 3 kts | 229° |
| 2026-04-28 13:10 | -4.25544 | 15.25169 | 1048 ft | 1 kts | 229° |
| 2026-04-28 13:10 | -4.25549 | 15.25167 | 1046 ft | 1 kts | 208° |
| 2026-04-28 13:10 | -4.25557 | 15.25171 | 1046 ft | 2 kts | 156° |
| 2026-04-28 13:11 | -4.25560 | 15.25186 | 1045 ft | 3 kts | 95° |
| 2026-04-28 13:11 | -4.25550 | 15.25204 | 1045 ft | 3 kts | 50° |
| 2026-04-28 13:11 | -4.25518 | 15.25222 | 1045 ft | 8 kts | 28° |
| 2026-04-28 13:11 | -4.25466 | 15.25264 | 1045 ft | 12 kts | 49° |
| 2026-04-28 13:12 | -4.25405 | 15.25335 | 1045 ft | 15 kts | 49° |
| 2026-04-28 13:12 | -4.25323 | 15.25372 | 1045 ft | 9 kts | 333° |
| 2026-04-28 13:12 | -4.25261 | 15.25326 | 1045 ft | 13 kts | 322° |
| 2026-04-28 13:12 | -4.25177 | 15.25257 | 1044 ft | 18 kts | 320° |
| 2026-04-28 13:13 | -4.25078 | 15.25163 | 1042 ft | 18 kts | 292° |
| 2026-04-28 13:13 | -4.25130 | 15.25050 | 1041 ft | 21 kts | 230° |
| 2026-04-28 13:13 | -4.25234 | 15.24928 | 1040 ft | 25 kts | 229° |
| 2026-04-28 13:13 | -4.25355 | 15.24786 | 1040 ft | 28 kts | 230° |
| 2026-04-28 13:14 | -4.25488 | 15.24627 | 1041 ft | 31 kts | 230° |
| 2026-04-28 13:14 | -4.25581 | 15.24514 | 1042 ft | 32 kts | 230° |
| 2026-04-28 13:14 | -4.25781 | 15.24274 | 1043 ft | 27 kts | 230° |
| 2026-04-28 13:14 | -4.25863 | 15.24224 | 1042 ft | 13 kts | 203° |
| 2026-04-28 13:15 | -4.25886 | 15.24189 | 1042 ft | 5 kts | 277° |
| 2026-04-28 13:15 | -4.25861 | 15.24179 | 1042 ft | 3 kts | 10° |
| 2026-04-28 13:15 | -4.25839 | 15.24201 | 1042 ft | 6 kts | 49° |
| 2026-04-28 13:15 | -4.25803 | 15.24244 | 1043 ft | 10 kts | 50° |
| 2026-04-28 13:16 | -4.25741 | 15.24320 | 1043 ft | 27 kts | 51° |
| 2026-04-28 13:16 | -4.25471 | 15.24648 | 1041 ft | 93 kts | 50° |
| 2026-04-28 13:16 | -4.24932 | 15.25291 | 1043 ft | 147 kts | 50° |
| 2026-04-28 13:16 | -4.24205 | 15.26165 | 1367 ft | 165 kts | 52° |
| 2026-04-28 13:17 | -4.23491 | 15.27013 | 2095 ft | 159 kts | 50° |
| 2026-04-28 13:17 | -4.22757 | 15.27882 | 2448 ft | 172 kts | 51° |
| 2026-04-28 13:17 | -4.21951 | 15.28847 | 2736 ft | 187 kts | 51° |
| 2026-04-28 13:17 | -4.21094 | 15.29893 | 3157 ft | 201 kts | 51° |
| 2026-04-28 13:18 | -4.20165 | 15.30971 | 3618 ft | 208 kts | 45° |
| 2026-04-28 13:18 | -4.18988 | 15.31846 | 3965 ft | 224 kts | 25° |
| 2026-04-28 13:18 | -4.17420 | 15.32130 | 4415 ft | 238 kts | 357° |
| 2026-04-28 13:18 | -4.15764 | 15.31727 | 4784 ft | 255 kts | 343° |
| 2026-04-28 13:19 | -4.14129 | 15.30932 | 5260 ft | 266 kts | 326° |
| 2026-04-28 13:19 | -4.12736 | 15.29669 | 5803 ft | 277 kts | 315° |
| 2026-04-28 13:19 | -4.11486 | 15.28168 | 6404 ft | 283 kts | 309° |
| 2026-04-28 13:19 | -4.10320 | 15.26567 | 7057 ft | 286 kts | 307° |
| 2026-04-28 13:20 | -4.09173 | 15.24913 | 7734 ft | 290 kts | 306° |
| 2026-04-28 13:20 | -4.08015 | 15.23240 | 8429 ft | 293 kts | 306° |
| 2026-04-28 13:20 | -4.06833 | 15.21562 | 9145 ft | 296 kts | 307° |
| 2026-04-28 13:20 | -4.05625 | 15.19879 | 9846 ft | 300 kts | 307° |
| 2026-04-28 13:21 | -4.04377 | 15.18166 | 10311 ft | 312 kts | 307° |
| 2026-04-28 13:21 | -4.03055 | 15.16370 | 10608 ft | 329 kts | 307° |
| 2026-04-28 13:21 | -4.01664 | 15.14489 | 10879 ft | 345 kts | 308° |
| 2026-04-28 13:21 | -4.00200 | 15.12512 | 11153 ft | 360 kts | 307° |
| 2026-04-28 13:22 | -3.98679 | 15.10455 | 11435 ft | 374 kts | 307° |
| 2026-04-28 13:22 | -3.97117 | 15.08339 | 11813 ft | 381 kts | 307° |
| 2026-04-28 13:22 | -3.95525 | 15.06182 | 12289 ft | 386 kts | 307° |
| 2026-04-28 13:22 | -3.93920 | 15.04006 | 12784 ft | 391 kts | 307° |
| 2026-04-28 13:23 | -3.92296 | 15.01803 | 13243 ft | 396 kts | 307° |
| 2026-04-28 13:23 | -3.90671 | 14.99600 | 13716 ft | 400 kts | 307° |
| 2026-04-28 13:23 | -3.88993 | 14.97325 | 14196 ft | 401 kts | 307° |
| 2026-04-28 13:23 | -3.87359 | 14.95109 | 14724 ft | 401 kts | 307° |
| 2026-04-28 13:24 | -3.85699 | 14.92859 | 15146 ft | 404 kts | 307° |
| 2026-04-28 13:24 | -3.84022 | 14.90588 | 15590 ft | 406 kts | 307° |
| 2026-04-28 13:24 | -3.82339 | 14.88308 | 15978 ft | 410 kts | 307° |
| 2026-04-28 13:24 | -3.80629 | 14.85994 | 16410 ft | 412 kts | 307° |
| 2026-04-28 13:25 | -3.78920 | 14.83679 | 16864 ft | 414 kts | 307° |
| 2026-04-28 13:25 | -3.77201 | 14.81351 | 17269 ft | 417 kts | 307° |
| 2026-04-28 13:25 | -3.75476 | 14.79014 | 17713 ft | 418 kts | 307° |
| 2026-04-28 13:25 | -3.73744 | 14.76669 | 18127 ft | 420 kts | 307° |
| 2026-04-28 13:26 | -3.71995 | 14.74301 | 18470 ft | 423 kts | 307° |
| 2026-04-28 13:26 | -3.70241 | 14.71925 | 18818 ft | 425 kts | 307° |
| 2026-04-28 13:26 | -3.68475 | 14.69535 | 19147 ft | 428 kts | 307° |
| 2026-04-28 13:26 | -3.66699 | 14.67131 | 19497 ft | 430 kts | 307° |
| 2026-04-28 13:27 | -3.64943 | 14.64752 | 19838 ft | 431 kts | 307° |
| 2026-04-28 13:27 | -3.63154 | 14.62330 | 20173 ft | 433 kts | 307° |
| 2026-04-28 13:27 | -3.61354 | 14.59894 | 20512 ft | 435 kts | 307° |
| 2026-04-28 13:27 | -3.59549 | 14.57451 | 20875 ft | 437 kts | 307° |
| 2026-04-28 13:28 | -3.57737 | 14.54999 | 21215 ft | 439 kts | 307° |
| 2026-04-28 13:28 | -3.55916 | 14.52534 | 21559 ft | 442 kts | 307° |
| 2026-04-28 13:28 | -3.54083 | 14.50055 | 21916 ft | 443 kts | 307° |
| 2026-04-28 13:28 | -3.52244 | 14.47566 | 22317 ft | 445 kts | 306° |
| 2026-04-28 13:29 | -3.50403 | 14.45076 | 22681 ft | 447 kts | 306° |
| 2026-04-28 13:29 | -3.48547 | 14.42565 | 23035 ft | 449 kts | 306° |
| 2026-04-28 13:29 | -3.46686 | 14.40048 | 23426 ft | 450 kts | 306° |
| 2026-04-28 13:29 | -3.44835 | 14.37544 | 23708 ft | 453 kts | 306° |
| 2026-04-28 13:30 | -3.42952 | 14.34998 | 23954 ft | 456 kts | 306° |
| 2026-04-28 13:30 | -3.41059 | 14.32439 | 24312 ft | 457 kts | 306° |
| 2026-04-28 13:30 | -3.39160 | 14.29870 | 24602 ft | 460 kts | 306° |
| 2026-04-28 13:30 | -3.37249 | 14.27287 | 24909 ft | 462 kts | 306° |
| 2026-04-28 13:31 | -3.33412 | 14.22098 | 25660 ft | 465 kts | 306° |
| 2026-04-28 13:31 | -3.31479 | 14.19485 | 25965 ft | 469 kts | 307° |
| 2026-04-28 13:31 | -3.29555 | 14.16884 | 26262 ft | 473 kts | 307° |
| 2026-04-28 13:32 | -3.27582 | 14.14217 | 26667 ft | 474 kts | 307° |
| 2026-04-28 13:32 | -3.25617 | 14.11561 | 27062 ft | 476 kts | 307° |
| 2026-04-28 13:32 | -3.23642 | 14.08893 | 27420 ft | 479 kts | 307° |
| 2026-04-28 13:32 | -3.21649 | 14.06200 | 27788 ft | 482 kts | 307° |
| 2026-04-28 13:33 | -3.19650 | 14.03498 | 28158 ft | 485 kts | 307° |
| 2026-04-28 13:33 | -3.17636 | 14.00778 | 28520 ft | 487 kts | 307° |
| 2026-04-28 13:33 | -3.15607 | 13.98037 | 28873 ft | 490 kts | 307° |
| 2026-04-28 13:33 | -3.13569 | 13.95283 | 29218 ft | 493 kts | 306° |
| 2026-04-28 13:34 | -3.11550 | 13.92556 | 29535 ft | 495 kts | 306° |
| 2026-04-28 13:34 | -3.09483 | 13.89763 | 29844 ft | 498 kts | 306° |
| 2026-04-28 13:34 | -3.07409 | 13.86963 | 30115 ft | 501 kts | 307° |
| 2026-04-28 13:34 | -3.05353 | 13.84186 | 30358 ft | 503 kts | 307° |
| 2026-04-28 13:35 | -3.03262 | 13.81364 | 30614 ft | 506 kts | 307° |
| 2026-04-28 13:35 | -3.01163 | 13.78529 | 30851 ft | 508 kts | 307° |
| 2026-04-28 13:35 | -2.99051 | 13.75679 | 31072 ft | 510 kts | 307° |
| 2026-04-28 13:35 | -2.96934 | 13.72820 | 31329 ft | 512 kts | 307° |
| 2026-04-28 13:36 | -2.94819 | 13.69964 | 31611 ft | 512 kts | 307° |
| 2026-04-28 13:36 | -2.92689 | 13.67088 | 31885 ft | 513 kts | 307° |
| 2026-04-28 13:36 | -2.90564 | 13.64221 | 32221 ft | 513 kts | 307° |
| 2026-04-28 13:36 | -2.88440 | 13.61353 | 32558 ft | 512 kts | 307° |
| 2026-04-28 13:37 | -2.86315 | 13.58485 | 32884 ft | 512 kts | 307° |
| 2026-04-28 13:37 | -2.84197 | 13.55626 | 33217 ft | 511 kts | 307° |
| 2026-04-28 13:37 | -2.82105 | 13.52804 | 33523 ft | 511 kts | 308° |
| 2026-04-28 13:37 | -2.79985 | 13.49942 | 33834 ft | 510 kts | 308° |
| 2026-04-28 13:38 | -2.77871 | 13.47089 | 34105 ft | 509 kts | 308° |
| 2026-04-28 13:38 | -2.75766 | 13.44249 | 34418 ft | 508 kts | 308° |
| 2026-04-28 13:38 | -2.73658 | 13.41405 | 34690 ft | 507 kts | 308° |
| 2026-04-28 13:38 | -2.71558 | 13.38573 | 34949 ft | 507 kts | 308° |
| 2026-04-28 13:39 | -2.69456 | 13.35737 | 35208 ft | 506 kts | 308° |
| 2026-04-28 13:39 | -2.67353 | 13.32900 | 35465 ft | 506 kts | 308° |
| 2026-04-28 13:39 | -2.65286 | 13.30111 | 35713 ft | 505 kts | 308° |
| 2026-04-28 13:39 | -2.63186 | 13.27279 | 35955 ft | 504 kts | 308° |
| 2026-04-28 13:40 | -2.61099 | 13.24465 | 36205 ft | 504 kts | 308° |
| 2026-04-28 13:40 | -2.59002 | 13.21638 | 36440 ft | 503 kts | 308° |
| 2026-04-28 13:40 | -2.56918 | 13.18828 | 36662 ft | 503 kts | 308° |
| 2026-04-28 13:40 | -2.54837 | 13.16021 | 36893 ft | 502 kts | 308° |
| 2026-04-28 13:41 | -2.52757 | 13.13217 | 37133 ft | 501 kts | 308° |
| 2026-04-28 13:41 | -2.50704 | 13.10449 | 37410 ft | 499 kts | 309° |
| 2026-04-28 13:41 | -2.48640 | 13.07666 | 37683 ft | 497 kts | 309° |
| 2026-04-28 13:41 | -2.46579 | 13.04888 | 37871 ft | 498 kts | 309° |
| 2026-04-28 13:42 | -2.42409 | 12.99516 | 37879 ft | 498 kts | 311° |
| 2026-04-28 13:42 | -2.39641 | 12.96133 | 37881 ft | 498 kts | 311° |
| 2026-04-28 13:43 | -2.35263 | 12.90798 | 37884 ft | 498 kts | 311° |
| 2026-04-28 13:43 | -2.30890 | 12.85414 | 37880 ft | 498 kts | 311° |
| 2026-04-28 13:44 | -2.26534 | 12.80014 | 37888 ft | 498 kts | 311° |
| 2026-04-28 13:44 | -2.22185 | 12.74617 | 37883 ft | 498 kts | 311° |
| 2026-04-28 13:45 | -2.17876 | 12.69271 | 37883 ft | 499 kts | 311° |
| 2026-04-28 13:45 | -2.13521 | 12.63870 | 37879 ft | 499 kts | 311° |
| 2026-04-28 13:46 | -2.09181 | 12.58488 | 37891 ft | 499 kts | 311° |
| 2026-04-28 13:46 | -2.04821 | 12.53084 | 37891 ft | 499 kts | 311° |
| 2026-04-28 13:47 | -2.00452 | 12.47667 | 37893 ft | 499 kts | 311° |
| 2026-04-28 13:47 | -1.96096 | 12.42268 | 37891 ft | 499 kts | 311° |
| 2026-04-28 13:48 | -1.91732 | 12.36859 | 37894 ft | 499 kts | 311° |
| 2026-04-28 13:48 | -1.87400 | 12.31490 | 37895 ft | 499 kts | 311° |
| 2026-04-28 13:49 | -1.83037 | 12.26083 | 37894 ft | 500 kts | 310° |
| 2026-04-28 13:49 | -1.78658 | 12.20657 | 37893 ft | 501 kts | 310° |
| 2026-04-28 13:50 | -1.74288 | 12.15243 | 37897 ft | 501 kts | 310° |
| 2026-04-28 13:50 | -1.69904 | 12.09811 | 37893 ft | 501 kts | 310° |
| 2026-04-28 13:51 | -1.65550 | 12.04413 | 37896 ft | 501 kts | 310° |
| 2026-04-28 13:51 | -1.61172 | 11.98994 | 37897 ft | 501 kts | 311° |
| 2026-04-28 13:52 | -1.56784 | 11.93562 | 37896 ft | 501 kts | 311° |
| 2026-04-28 13:52 | -1.52419 | 11.88156 | 37896 ft | 501 kts | 311° |
| 2026-04-28 13:53 | -1.48038 | 11.82732 | 37893 ft | 501 kts | 311° |
| 2026-04-28 13:53 | -1.43655 | 11.77305 | 37889 ft | 502 kts | 311° |
| 2026-04-28 13:54 | -1.39260 | 11.71861 | 37897 ft | 503 kts | 311° |
| 2026-04-28 13:54 | -1.34873 | 11.66426 | 37899 ft | 503 kts | 311° |
| 2026-04-28 13:55 | -1.30465 | 11.60973 | 37893 ft | 504 kts | 311° |
| 2026-04-28 13:55 | -1.26085 | 11.55553 | 37899 ft | 504 kts | 311° |
| 2026-04-28 13:56 | -1.21672 | 11.50092 | 37899 ft | 504 kts | 311° |
| 2026-04-28 13:56 | -1.17261 | 11.44632 | 37902 ft | 504 kts | 311° |
| 2026-04-28 13:57 | -1.12856 | 11.39180 | 37898 ft | 504 kts | 311° |
| 2026-04-28 13:57 | -1.08441 | 11.33716 | 37903 ft | 505 kts | 311° |
| 2026-04-28 13:58 | -1.04024 | 11.28250 | 37902 ft | 505 kts | 311° |
| 2026-04-28 13:58 | -0.99633 | 11.22815 | 37893 ft | 505 kts | 311° |
| 2026-04-28 13:59 | -0.95215 | 11.17348 | 37900 ft | 506 kts | 311° |
| 2026-04-28 13:59 | -0.90786 | 11.11869 | 37896 ft | 505 kts | 311° |
| 2026-04-28 14:00 | -0.86362 | 11.06395 | 37904 ft | 505 kts | 311° |
| 2026-04-28 14:00 | -0.81970 | 11.00961 | 37902 ft | 505 kts | 311° |
| 2026-04-28 14:01 | -0.78267 | 10.96380 | 37896 ft | 505 kts | 311° |
| 2026-04-28 14:01 | -0.73876 | 10.90948 | 37893 ft | 506 kts | 311° |
| 2026-04-28 14:02 | -0.69434 | 10.85460 | 37898 ft | 509 kts | 311° |
| 2026-04-28 14:02 | -0.64980 | 10.79948 | 37896 ft | 509 kts | 311° |